This is the latest recevied weather packets stored in our database for station/object KD2FKI. If no packets are shown the sender has not sent any weather packets the latest 10 day(s).
| Time | Temp. | Humidity | Pressure | Rain* | Wind** | Luminosity | Snow |
|---|---|---|---|---|---|---|---|
| 1788141922 | 21.11° C | 91% | - | 0 mm | - | - | - |
| 1788141321 | 21.11° C | 91% | - | 0 mm | - | - | - |
| 1788140739 | 21.11° C | 91% | - | 0 mm | - | - | - |
| 1788140134 | 21.11° C | 91% | - | 0 mm | - | - | - |
| 1788139535 | 21.11° C | 90% | - | 0 mm | - | - | - |
| 1788138948 | 21.11° C | 90% | - | 0 mm | - | - | - |
| 1788138328 | 21.11° C | 90% | - | 0 mm | - | - | - |
| 1788137725 | 21.67° C | 90% | - | 0 mm | - | - | - |
| 1788137123 | 21.67° C | 90% | - | 0 mm | - | - | - |
| 1788136523 | 21.67° C | 90% | - | 0 mm | - | - | - |
| 1788135936 | 21.67° C | 90% | - | 6.6 mm | - | - | - |
| 1788135336 | 22.22° C | 90% | - | 16.26 mm | - | - | - |
| 1788134733 | 22.22° C | 90% | - | 18.8 mm | - | - | - |
| 1788134148 | 22.22° C | 89% | - | 18.8 mm | - | - | - |
| 1788133530 | 22.78° C | 88% | - | 18.8 mm | - | - | - |
| 1788132927 | 22.78° C | 88% | - | 18.8 mm | - | - | - |
| 1788132323 | 23.89° C | 86% | - | 12.19 mm | - | - | - |
| 1788131720 | 26.11° C | 76% | - | 2.54 mm | - | - | - |
| 1788131136 | 28.33° C | 66% | - | 0 mm | - | - | - |
| 1788130534 | 28.33° C | 68% | - | 0 mm | - | - | - |
| 1788129933 | 28.89° C | 67% | - | 0 mm | - | - | - |
| 1788129330 | 29.44° C | 65% | - | 0 mm | - | - | - |
| 1788128727 | 30° C | 63% | - | 0 mm | - | - | - |
| 1788128126 | 30° C | 62% | - | 0 mm | - | - | - |
| 1788127523 | 30.56° C | 60% | - | 0 mm | - | - | - |
* Rain latest hour (hover to see other rain measurements)
** Current wind speed in m/s (hover to see current wind gust speed)